< < Back
Terminal Aerodrome Forecast


Current Version              Previous Versions:   1  2  3  4  5  6  7  8  9  

Terminal Aerodrome Forecast

034
FTUS42 KMLB 311736
TAFDAB
TAF
KDAB 311736Z 3118/0118 21011KT P6SM VCTS SCT040CB SCT060 BKN150
      TEMPO 3118/3119 25026G30KT 5SM TSRA BKN030CB OVC050
     FM010000 19005KT P6SM FEW030 SCT150 BKN250
     FM011400 18009KT P6SM VCSH SCT020 BKN120=



Latest METAR

526
SAUS80 KWBC 011600 RRF
MTRDAB
METAR KDAB 011553Z 21014G22KT 10SM SCT031 SCT085 SCT110 BKN250 31/23
A2997 RMK AO2 SLP147 CB DSNT W-NW T03110228


USA.gov is the U.S. government's official web portal to all federal, state and local government web resources and services.